KOCH/OCH METAR and TAF weather

Enter ICAO airport designator
Station Type Date Time Source
KOCH METAR 2020/12/06 00:56 UTC NOAA

KOCH 060056Z AUTO 00000KT 10SM BKN110 09/04 A3019 RMK AO2 SLP230 T00890044


Station Type Date Time Source
KOCH Decoded METAR 2020/12/06 00:56 UTC NOAA

Nacogdoches, A L Mangham Jr. Regional Airport, TX, United States (KOCH) 31-35N 094-43W
Dec 05, 2020 - 07:56 PM EST / 2020.12.06 0056 UTC
Wind: Calm:0
Visibility: 10 mile(s):0
Sky conditions: mostly cloudy
Temperature: 48.0 F (8.9 C)
Dew Point: 39.9 F (4.4 C)
Relative Humidity: 73%
Pressure (altimeter): 30.19 in. Hg (1022 hPa)
ob: KOCH 060056Z AUTO 00000KT 10SM BKN110 09/04 A3019 RMK AO2 SLP230 T00890044
cycle: 1

Station Type Date Time Source
KOCH TAF UTC NOAA

Error!

Example: see airport list